sensor_id;sensor_type;location;lat;lon;timestamp;P1;durP1;ratioP1;P2;durP2;ratioP2
22634;SDS011;11484;50.858;4.384;2024-03-23T00:53:33;8.80;;;3.53;;
22634;SDS011;11484;50.858;4.384;2024-03-23T00:55:59;9.40;;;3.95;;
22634;SDS011;11484;50.858;4.384;2024-03-23T00:58:26;10.38;;;4.00;;
22634;SDS011;11484;50.858;4.384;2024-03-23T01:00:51;13.13;;;3.85;;
22634;SDS011;11484;50.858;4.384;2024-03-23T01:03:17;7.78;;;3.22;;
22634;SDS011;11484;50.858;4.384;2024-03-23T01:05:43;10.75;;;3.63;;
22634;SDS011;11484;50.858;4.384;2024-03-23T01:08:08;8.60;;;3.30;;
22634;SDS011;11484;50.858;4.384;2024-03-23T01:10:34;9.23;;;3.00;;
22634;SDS011;11484;50.858;4.384;2024-03-23T01:13:00;11.80;;;3.50;;
22634;SDS011;11484;50.858;4.384;2024-03-23T01:15:25;9.57;;;2.70;;
22634;SDS011;11484;50.858;4.384;2024-03-23T01:17:51;8.65;;;3.20;;
22634;SDS011;11484;50.858;4.384;2024-03-23T01:20:16;10.35;;;3.38;;
22634;SDS011;11484;50.858;4.384;2024-03-23T01:22:42;10.13;;;3.03;;
22634;SDS011;11484;50.858;4.384;2024-03-23T01:25:08;13.80;;;3.40;;
22634;SDS011;11484;50.858;4.384;2024-03-23T01:27:34;10.75;;;3.45;;
22634;SDS011;11484;50.858;4.384;2024-03-23T01:29:59;8.38;;;3.65;;
22634;SDS011;11484;50.858;4.384;2024-03-23T01:32:25;8.38;;;4.00;;
22634;SDS011;11484;50.858;4.384;2024-03-23T01:34:51;10.02;;;4.45;;
22634;SDS011;11484;50.858;4.384;2024-03-23T01:37:16;11.63;;;4.28;;
22634;SDS011;11484;50.858;4.384;2024-03-23T01:39:42;13.27;;;4.95;;
22634;SDS011;11484;50.858;4.384;2024-03-23T01:42:08;8.85;;;4.88;;
22634;SDS011;11484;50.858;4.384;2024-03-23T01:44:34;13.98;;;4.80;;
22634;SDS011;11484;50.858;4.384;2024-03-23T01:46:59;11.25;;;4.97;;
22634;SDS011;11484;50.858;4.384;2024-03-23T01:49:25;18.17;;;5.25;;
22634;SDS011;11484;50.858;4.384;2024-03-23T01:51:51;15.93;;;5.55;;
22634;SDS011;11484;50.858;4.384;2024-03-23T01:54:17;14.60;;;5.47;;
22634;SDS011;11484;50.858;4.384;2024-03-23T01:56:43;12.73;;;5.15;;
22634;SDS011;11484;50.858;4.384;2024-03-23T01:59:09;10.80;;;5.38;;
22634;SDS011;11484;50.858;4.384;2024-03-23T02:01:35;12.02;;;5.72;;
22634;SDS011;11484;50.858;4.384;2024-03-23T02:04:01;13.90;;;5.28;;
22634;SDS011;11484;50.858;4.384;2024-03-23T02:06:27;16.85;;;6.07;;
22634;SDS011;11484;50.858;4.384;2024-03-23T02:08:56;11.13;;;6.03;;
22634;SDS011;11484;50.858;4.384;2024-03-23T02:11:22;17.55;;;6.95;;
22634;SDS011;11484;50.858;4.384;2024-03-23T02:13:48;12.98;;;6.10;;
22634;SDS011;11484;50.858;4.384;2024-03-23T02:16:14;12.90;;;6.57;;
22634;SDS011;11484;50.858;4.384;2024-03-23T02:18:39;12.82;;;6.60;;
22634;SDS011;11484;50.858;4.384;2024-03-23T02:21:05;15.95;;;6.60;;
22634;SDS011;11484;50.858;4.384;2024-03-23T02:23:31;15.15;;;6.40;;
22634;SDS011;11484;50.858;4.384;2024-03-23T02:25:56;16.20;;;7.18;;
22634;SDS011;11484;50.858;4.384;2024-03-23T02:28:22;14.27;;;7.30;;
22634;SDS011;11484;50.858;4.384;2024-03-23T02:30:48;17.92;;;7.68;;
22634;SDS011;11484;50.858;4.384;2024-03-23T02:33:14;18.75;;;7.68;;
22634;SDS011;11484;50.858;4.384;2024-03-23T02:35:40;15.85;;;7.63;;
22634;SDS011;11484;50.858;4.384;2024-03-23T02:38:06;17.27;;;7.43;;
22634;SDS011;11484;50.858;4.384;2024-03-23T02:40:32;19.13;;;9.05;;
22634;SDS011;11484;50.858;4.384;2024-03-23T02:42:57;22.38;;;8.00;;
22634;SDS011;11484;50.858;4.384;2024-03-23T02:45:23;19.58;;;8.50;;
22634;SDS011;11484;50.858;4.384;2024-03-23T02:47:49;18.52;;;7.63;;
22634;SDS011;11484;50.858;4.384;2024-03-23T02:50:18;18.98;;;7.82;;
22634;SDS011;11484;50.858;4.384;2024-03-23T02:52:44;20.35;;;8.05;;
22634;SDS011;11484;50.858;4.384;2024-03-23T02:55:10;18.70;;;8.55;;
22634;SDS011;11484;50.858;4.384;2024-03-23T02:57:35;16.83;;;7.95;;
22634;SDS011;11484;50.858;4.384;2024-03-23T03:00:01;23.65;;;8.60;;
22634;SDS011;11484;50.858;4.384;2024-03-23T03:02:27;22.50;;;8.73;;
22634;SDS011;11484;50.858;4.384;2024-03-23T03:04:53;19.33;;;9.10;;
22634;SDS011;11484;50.858;4.384;2024-03-23T03:07:18;18.95;;;8.48;;
22634;SDS011;11484;50.858;4.384;2024-03-23T03:09:44;16.48;;;9.18;;
22634;SDS011;11484;50.858;4.384;2024-03-23T03:12:09;19.40;;;9.07;;
22634;SDS011;11484;50.858;4.384;2024-03-23T03:14:35;22.10;;;9.52;;
22634;SDS011;11484;50.858;4.384;2024-03-23T03:17:00;20.55;;;8.88;;
22634;SDS011;11484;50.858;4.384;2024-03-23T03:19:26;23.77;;;9.68;;
22634;SDS011;11484;50.858;4.384;2024-03-23T03:21:52;19.63;;;9.70;;
22634;SDS011;11484;50.858;4.384;2024-03-23T03:24:18;25.00;;;9.13;;
22634;SDS011;11484;50.858;4.384;2024-03-23T03:26:44;17.95;;;8.98;;
22634;SDS011;11484;50.858;4.384;2024-03-23T03:29:10;22.10;;;9.55;;
22634;SDS011;11484;50.858;4.384;2024-03-23T03:31:36;21.55;;;8.05;;
22634;SDS011;11484;50.858;4.384;2024-03-23T03:34:02;19.60;;;8.77;;
22634;SDS011;11484;50.858;4.384;2024-03-23T03:36:28;20.13;;;7.80;;
22634;SDS011;11484;50.858;4.384;2024-03-23T03:38:54;18.58;;;8.55;;
22634;SDS011;11484;50.858;4.384;2024-03-23T03:41:19;18.45;;;8.10;;
22634;SDS011;11484;50.858;4.384;2024-03-23T03:43:45;16.60;;;8.50;;
22634;SDS011;11484;50.858;4.384;2024-03-23T03:46:11;19.98;;;8.35;;
22634;SDS011;11484;50.858;4.384;2024-03-23T03:48:37;20.02;;;8.85;;
22634;SDS011;11484;50.858;4.384;2024-03-23T03:51:02;20.98;;;9.23;;
22634;SDS011;11484;50.858;4.384;2024-03-23T03:53:29;19.70;;;9.00;;
22634;SDS011;11484;50.858;4.384;2024-03-23T03:55:55;20.08;;;9.32;;
22634;SDS011;11484;50.858;4.384;2024-03-23T03:58:21;20.30;;;9.30;;
22634;SDS011;11484;50.858;4.384;2024-03-23T04:00:46;20.08;;;9.57;;
22634;SDS011;11484;50.858;4.384;2024-03-23T04:03:12;20.77;;;9.45;;
22634;SDS011;11484;50.858;4.384;2024-03-23T04:05:38;28.10;;;9.80;;
22634;SDS011;11484;50.858;4.384;2024-03-23T04:08:04;20.92;;;9.65;;
22634;SDS011;11484;50.858;4.384;2024-03-23T04:10:30;20.52;;;9.05;;
22634;SDS011;11484;50.858;4.384;2024-03-23T04:12:56;21.50;;;9.15;;
22634;SDS011;11484;50.858;4.384;2024-03-23T04:15:21;19.77;;;9.07;;
22634;SDS011;11484;50.858;4.384;2024-03-23T04:17:47;17.77;;;8.27;;
22634;SDS011;11484;50.858;4.384;2024-03-23T04:20:13;16.95;;;8.88;;
22634;SDS011;11484;50.858;4.384;2024-03-23T04:22:42;19.83;;;7.97;;
22634;SDS011;11484;50.858;4.384;2024-03-23T04:25:10;18.08;;;8.20;;
22634;SDS011;11484;50.858;4.384;2024-03-23T04:27:36;19.90;;;8.43;;
22634;SDS011;11484;50.858;4.384;2024-03-23T04:30:03;17.55;;;7.25;;
22634;SDS011;11484;50.858;4.384;2024-03-23T04:32:34;19.70;;;6.70;;
22634;SDS011;11484;50.858;4.384;2024-03-23T04:35:00;11.77;;;6.05;;
22634;SDS011;11484;50.858;4.384;2024-03-23T04:37:25;12.90;;;5.65;;
22634;SDS011;11484;50.858;4.384;2024-03-23T04:39:51;13.02;;;5.40;;
22634;SDS011;11484;50.858;4.384;2024-03-23T04:42:17;14.98;;;5.20;;
22634;SDS011;11484;50.858;4.384;2024-03-23T04:44:43;11.05;;;4.95;;
22634;SDS011;11484;50.858;4.384;2024-03-23T04:47:10;17.38;;;6.35;;
22634;SDS011;11484;50.858;4.384;2024-03-23T04:49:36;15.35;;;5.45;;
22634;SDS011;11484;50.858;4.384;2024-03-23T04:52:02;15.98;;;5.20;;
22634;SDS011;11484;50.858;4.384;2024-03-23T04:54:29;8.55;;;5.05;;
22634;SDS011;11484;50.858;4.384;2024-03-23T04:56:55;12.23;;;5.80;;
22634;SDS011;11484;50.858;4.384;2024-03-23T04:59:21;11.10;;;5.55;;
22634;SDS011;11484;50.858;4.384;2024-03-23T05:01:47;13.38;;;5.43;;
22634;SDS011;11484;50.858;4.384;2024-03-23T05:04:12;16.63;;;5.88;;
22634;SDS011;11484;50.858;4.384;2024-03-23T05:06:38;13.50;;;5.80;;
22634;SDS011;11484;50.858;4.384;2024-03-23T05:09:03;11.95;;;6.25;;
22634;SDS011;11484;50.858;4.384;2024-03-23T05:11:35;15.30;;;6.00;;
22634;SDS011;11484;50.858;4.384;2024-03-23T05:14:01;15.68;;;6.13;;
22634;SDS011;11484;50.858;4.384;2024-03-23T05:16:28;15.05;;;5.72;;
22634;SDS011;11484;50.858;4.384;2024-03-23T05:18:53;14.77;;;5.95;;
22634;SDS011;11484;50.858;4.384;2024-03-23T05:21:19;10.43;;;5.82;;
22634;SDS011;11484;50.858;4.384;2024-03-23T05:23:45;15.85;;;6.45;;
22634;SDS011;11484;50.858;4.384;2024-03-23T05:26:11;14.95;;;6.68;;
22634;SDS011;11484;50.858;4.384;2024-03-23T05:28:36;16.65;;;7.32;;
22634;SDS011;11484;50.858;4.384;2024-03-23T05:31:02;16.92;;;6.65;;
22634;SDS011;11484;50.858;4.384;2024-03-23T05:33:28;17.63;;;6.38;;
22634;SDS011;11484;50.858;4.384;2024-03-23T05:35:57;16.92;;;6.82;;
22634;SDS011;11484;50.858;4.384;2024-03-23T05:38:24;14.95;;;6.25;;
22634;SDS011;11484;50.858;4.384;2024-03-23T05:40:53;11.93;;;6.32;;
22634;SDS011;11484;50.858;4.384;2024-03-23T05:43:20;12.85;;;7.10;;
22634;SDS011;11484;50.858;4.384;2024-03-23T05:45:46;17.13;;;5.50;;
22634;SDS011;11484;50.858;4.384;2024-03-23T05:48:18;15.77;;;5.80;;
22634;SDS011;11484;50.858;4.384;2024-03-23T05:50:43;14.00;;;5.78;;
22634;SDS011;11484;50.858;4.384;2024-03-23T05:53:09;12.45;;;4.78;;
22634;SDS011;11484;50.858;4.384;2024-03-23T05:55:34;16.30;;;5.10;;
22634;SDS011;11484;50.858;4.384;2024-03-23T05:58:00;12.80;;;3.83;;
22634;SDS011;11484;50.858;4.384;2024-03-23T06:00:26;11.55;;;5.30;;
22634;SDS011;11484;50.858;4.384;2024-03-23T06:02:51;15.55;;;5.22;;
22634;SDS011;11484;50.858;4.384;2024-03-23T06:05:17;13.40;;;5.05;;
22634;SDS011;11484;50.858;4.384;2024-03-23T06:07:43;12.48;;;3.83;;
22634;SDS011;11484;50.858;4.384;2024-03-23T06:10:08;11.55;;;4.15;;
22634;SDS011;11484;50.858;4.384;2024-03-23T06:12:34;11.90;;;4.30;;
22634;SDS011;11484;50.858;4.384;2024-03-23T06:15:00;9.20;;;3.88;;
22634;SDS011;11484;50.858;4.384;2024-03-23T06:17:25;13.00;;;4.38;;
22634;SDS011;11484;50.858;4.384;2024-03-23T06:19:51;10.05;;;4.25;;
22634;SDS011;11484;50.858;4.384;2024-03-23T06:22:17;17.13;;;4.57;;
22634;SDS011;11484;50.858;4.384;2024-03-23T06:24:42;11.30;;;3.60;;
22634;SDS011;11484;50.858;4.384;2024-03-23T06:27:09;14.25;;;4.47;;
22634;SDS011;11484;50.858;4.384;2024-03-23T06:29:35;8.95;;;3.13;;
22634;SDS011;11484;50.858;4.384;2024-03-23T06:32:01;8.18;;;3.20;;
22634;SDS011;11484;50.858;4.384;2024-03-23T06:34:28;10.82;;;3.30;;
22634;SDS011;11484;50.858;4.384;2024-03-23T06:36:54;17.83;;;3.65;;
22634;SDS011;11484;50.858;4.384;2024-03-23T06:39:19;7.68;;;2.92;;
22634;SDS011;11484;50.858;4.384;2024-03-23T06:41:51;10.10;;;3.00;;
22634;SDS011;11484;50.858;4.384;2024-03-23T06:44:18;13.02;;;3.00;;
22634;SDS011;11484;50.858;4.384;2024-03-23T06:46:44;7.00;;;2.40;;
22634;SDS011;11484;50.858;4.384;2024-03-23T06:49:10;12.77;;;2.90;;
22634;SDS011;11484;50.858;4.384;2024-03-23T06:51:35;11.52;;;3.42;;
22634;SDS011;11484;50.858;4.384;2024-03-23T06:54:06;12.63;;;2.85;;
22634;SDS011;11484;50.858;4.384;2024-03-23T06:56:32;15.35;;;3.88;;
22634;SDS011;11484;50.858;4.384;2024-03-23T06:58:58;13.73;;;3.40;;
22634;SDS011;11484;50.858;4.384;2024-03-23T07:01:24;9.50;;;2.67;;
22634;SDS011;11484;50.858;4.384;2024-03-23T07:03:49;8.73;;;2.55;;
22634;SDS011;11484;50.858;4.384;2024-03-23T07:06:15;10.85;;;2.45;;
22634;SDS011;11484;50.858;4.384;2024-03-23T07:08:41;12.15;;;3.53;;
22634;SDS011;11484;50.858;4.384;2024-03-23T07:11:06;9.13;;;2.67;;
22634;SDS011;11484;50.858;4.384;2024-03-23T07:13:32;10.05;;;3.08;;
22634;SDS011;11484;50.858;4.384;2024-03-23T07:15:58;7.30;;;2.90;;
22634;SDS011;11484;50.858;4.384;2024-03-23T07:18:25;9.25;;;3.22;;
22634;SDS011;11484;50.858;4.384;2024-03-23T07:20:57;5.55;;;2.15;;
22634;SDS011;11484;50.858;4.384;2024-03-23T07:23:23;5.80;;;2.28;;
22634;SDS011;11484;50.858;4.384;2024-03-23T07:25:56;6.57;;;2.33;;
22634;SDS011;11484;50.858;4.384;2024-03-23T07:28:25;12.27;;;2.97;;
22634;SDS011;11484;50.858;4.384;2024-03-23T07:31:07;10.23;;;2.70;;
22634;SDS011;11484;50.858;4.384;2024-03-23T07:33:47;8.55;;;2.83;;
22634;SDS011;11484;50.858;4.384;2024-03-23T07:36:13;10.88;;;2.63;;
22634;SDS011;11484;50.858;4.384;2024-03-23T07:38:43;8.60;;;2.72;;
22634;SDS011;11484;50.858;4.384;2024-03-23T07:41:14;10.18;;;3.20;;
22634;SDS011;11484;50.858;4.384;2024-03-23T07:43:44;10.63;;;4.53;;
22634;SDS011;11484;50.858;4.384;2024-03-23T07:46:16;8.70;;;2.63;;
22634;SDS011;11484;50.858;4.384;2024-03-23T07:48:42;9.75;;;2.78;;
22634;SDS011;11484;50.858;4.384;2024-03-23T07:51:08;11.38;;;2.80;;
22634;SDS011;11484;50.858;4.384;2024-03-23T07:53:36;12.82;;;3.40;;
22634;SDS011;11484;50.858;4.384;2024-03-23T07:56:03;7.50;;;2.80;;
22634;SDS011;11484;50.858;4.384;2024-03-23T07:58:29;8.52;;;2.92;;
22634;SDS011;11484;50.858;4.384;2024-03-23T08:00:55;7.68;;;2.58;;
22634;SDS011;11484;50.858;4.384;2024-03-23T08:03:21;11.65;;;2.92;;
22634;SDS011;11484;50.858;4.384;2024-03-23T08:05:48;9.65;;;2.72;;
22634;SDS011;11484;50.858;4.384;2024-03-23T08:08:14;7.68;;;2.50;;
22634;SDS011;11484;50.858;4.384;2024-03-23T08:10:50;7.22;;;2.60;;
22634;SDS011;11484;50.858;4.384;2024-03-23T08:13:16;6.85;;;2.63;;
22634;SDS011;11484;50.858;4.384;2024-03-23T08:15:42;10.52;;;2.50;;
22634;SDS011;11484;50.858;4.384;2024-03-23T08:18:08;7.63;;;2.65;;
22634;SDS011;11484;50.858;4.384;2024-03-23T08:20:35;11.70;;;2.75;;
22634;SDS011;11484;50.858;4.384;2024-03-23T08:23:01;9.50;;;2.90;;
22634;SDS011;11484;50.858;4.384;2024-03-23T08:25:27;10.23;;;3.08;;
22634;SDS011;11484;50.858;4.384;2024-03-23T08:27:55;11.23;;;2.97;;
22634;SDS011;11484;50.858;4.384;2024-03-23T08:30:21;9.98;;;2.45;;
22634;SDS011;11484;50.858;4.384;2024-03-23T08:32:47;10.10;;;2.95;;
22634;SDS011;11484;50.858;4.384;2024-03-23T08:35:13;9.48;;;2.90;;
22634;SDS011;11484;50.858;4.384;2024-03-23T08:37:39;10.48;;;3.13;;
22634;SDS011;11484;50.858;4.384;2024-03-23T08:40:05;13.45;;;3.05;;
22634;SDS011;11484;50.858;4.384;2024-03-23T08:42:31;15.85;;;5.30;;
22634;SDS011;11484;50.858;4.384;2024-03-23T08:44:57;8.93;;;2.92;;
22634;SDS011;11484;50.858;4.384;2024-03-23T08:47:22;10.05;;;2.95;;
22634;SDS011;11484;50.858;4.384;2024-03-23T08:49:48;11.40;;;3.05;;
22634;SDS011;11484;50.858;4.384;2024-03-23T08:52:14;9.02;;;3.65;;
22634;SDS011;11484;50.858;4.384;2024-03-23T08:54:43;11.23;;;2.78;;
22634;SDS011;11484;50.858;4.384;2024-03-23T08:57:09;7.72;;;3.25;;
22634;SDS011;11484;50.858;4.384;2024-03-23T08:59:35;7.53;;;2.70;;
22634;SDS011;11484;50.858;4.384;2024-03-23T09:02:03;5.40;;;2.25;;
22634;SDS011;11484;50.858;4.384;2024-03-23T09:04:29;9.10;;;2.42;;
22634;SDS011;11484;50.858;4.384;2024-03-23T09:06:55;8.43;;;2.42;;
22634;SDS011;11484;50.858;4.384;2024-03-23T09:09:22;7.75;;;3.22;;
22634;SDS011;11484;50.858;4.384;2024-03-23T09:11:48;10.25;;;2.25;;
22634;SDS011;11484;50.858;4.384;2024-03-23T09:14:13;8.60;;;3.13;;
22634;SDS011;11484;50.858;4.384;2024-03-23T09:16:39;8.77;;;2.58;;
22634;SDS011;11484;50.858;4.384;2024-03-23T09:19:05;7.57;;;2.63;;
22634;SDS011;11484;50.858;4.384;2024-03-23T09:21:30;13.00;;;2.58;;
22634;SDS011;11484;50.858;4.384;2024-03-23T09:23:56;11.23;;;3.17;;
22634;SDS011;11484;50.858;4.384;2024-03-23T09:26:22;8.38;;;2.35;;
22634;SDS011;11484;50.858;4.384;2024-03-23T09:28:48;7.13;;;2.97;;
22634;SDS011;11484;50.858;4.384;2024-03-23T09:31:14;7.35;;;2.50;;
22634;SDS011;11484;50.858;4.384;2024-03-23T09:33:40;7.00;;;2.65;;
22634;SDS011;11484;50.858;4.384;2024-03-23T09:36:06;6.88;;;2.30;;
22634;SDS011;11484;50.858;4.384;2024-03-23T09:38:33;11.18;;;2.50;;
22634;SDS011;11484;50.858;4.384;2024-03-23T09:40:59;8.05;;;2.60;;
22634;SDS011;11484;50.858;4.384;2024-03-23T09:43:25;6.75;;;2.30;;
22634;SDS011;11484;50.858;4.384;2024-03-23T09:45:52;7.50;;;3.05;;
22634;SDS011;11484;50.858;4.384;2024-03-23T09:48:18;7.85;;;2.50;;
22634;SDS011;11484;50.858;4.384;2024-03-23T09:50:46;6.32;;;3.05;;
22634;SDS011;11484;50.858;4.384;2024-03-23T09:53:12;9.95;;;3.30;;
22634;SDS011;11484;50.858;4.384;2024-03-23T09:55:39;11.57;;;3.90;;
22634;SDS011;11484;50.858;4.384;2024-03-23T09:58:06;6.68;;;3.03;;
22634;SDS011;11484;50.858;4.384;2024-03-23T10:00:33;5.40;;;2.80;;
22634;SDS011;11484;50.858;4.384;2024-03-23T10:03:02;10.30;;;2.58;;
22634;SDS011;11484;50.858;4.384;2024-03-23T10:05:28;5.75;;;2.95;;
22634;SDS011;11484;50.858;4.384;2024-03-23T10:07:57;9.13;;;3.15;;
22634;SDS011;11484;50.858;4.384;2024-03-23T10:10:25;8.82;;;3.78;;
22634;SDS011;11484;50.858;4.384;2024-03-23T10:12:51;10.50;;;3.53;;
22634;SDS011;11484;50.858;4.384;2024-03-23T10:15:24;9.32;;;3.00;;
22634;SDS011;11484;50.858;4.384;2024-03-23T10:17:50;7.68;;;2.10;;
22634;SDS011;11484;50.858;4.384;2024-03-23T10:20:20;6.05;;;2.25;;
22634;SDS011;11484;50.858;4.384;2024-03-23T10:22:48;6.85;;;2.28;;
22634;SDS011;11484;50.858;4.384;2024-03-23T10:25:15;4.90;;;2.17;;
22634;SDS011;11484;50.858;4.384;2024-03-23T10:27:41;4.97;;;2.10;;
22634;SDS011;11484;50.858;4.384;2024-03-23T10:30:25;8.07;;;2.50;;
22634;SDS011;11484;50.858;4.384;2024-03-23T10:33:06;8.35;;;2.50;;
22634;SDS011;11484;50.858;4.384;2024-03-23T10:35:34;12.70;;;2.88;;
22634;SDS011;11484;50.858;4.384;2024-03-23T10:38:00;9.13;;;3.35;;
22634;SDS011;11484;50.858;4.384;2024-03-23T10:40:28;7.25;;;2.67;;
22634;SDS011;11484;50.858;4.384;2024-03-23T10:42:55;5.93;;;2.00;;
22634;SDS011;11484;50.858;4.384;2024-03-23T10:45:25;8.63;;;3.05;;
22634;SDS011;11484;50.858;4.384;2024-03-23T10:47:51;8.38;;;2.60;;
22634;SDS011;11484;50.858;4.384;2024-03-23T10:50:17;8.98;;;2.38;;
22634;SDS011;11484;50.858;4.384;2024-03-23T10:52:45;7.97;;;2.92;;
22634;SDS011;11484;50.858;4.384;2024-03-23T10:55:12;9.88;;;3.55;;
22634;SDS011;11484;50.858;4.384;2024-03-23T10:57:48;10.00;;;2.97;;
22634;SDS011;11484;50.858;4.384;2024-03-23T11:00:16;4.95;;;1.77;;
22634;SDS011;11484;50.858;4.384;2024-03-23T11:02:42;7.00;;;2.10;;
22634;SDS011;11484;50.858;4.384;2024-03-23T11:07:50;6.50;;;1.50;;
22634;SDS011;11484;50.858;4.384;2024-03-23T11:10:29;7.30;;;2.33;;
22634;SDS011;11484;50.858;4.384;2024-03-23T11:12:57;7.40;;;2.17;;
22634;SDS011;11484;50.858;4.384;2024-03-23T11:15:23;9.20;;;1.67;;
22634;SDS011;11484;50.858;4.384;2024-03-23T11:18:02;5.32;;;1.70;;
22634;SDS011;11484;50.858;4.384;2024-03-23T11:20:32;9.60;;;2.50;;
22634;SDS011;11484;50.858;4.384;2024-03-23T11:22:58;5.13;;;1.92;;
22634;SDS011;11484;50.858;4.384;2024-03-23T11:25:25;7.10;;;1.67;;
22634;SDS011;11484;50.858;4.384;2024-03-23T11:27:58;7.25;;;1.88;;
22634;SDS011;11484;50.858;4.384;2024-03-23T11:30:37;5.70;;;2.00;;
22634;SDS011;11484;50.858;4.384;2024-03-23T11:33:06;7.80;;;1.73;;
22634;SDS011;11484;50.858;4.384;2024-03-23T11:38:11;5.68;;;1.40;;
22634;SDS011;11484;50.858;4.384;2024-03-23T11:40:42;5.35;;;1.58;;
22634;SDS011;11484;50.858;4.384;2024-03-23T11:43:13;10.35;;;2.35;;
22634;SDS011;11484;50.858;4.384;2024-03-23T11:45:49;3.88;;;1.80;;
22634;SDS011;11484;50.858;4.384;2024-03-23T11:48:21;6.75;;;1.55;;
22634;SDS011;11484;50.858;4.384;2024-03-23T11:50:49;6.15;;;1.65;;
22634;SDS011;11484;50.858;4.384;2024-03-23T11:53:22;7.28;;;1.88;;
22634;SDS011;11484;50.858;4.384;2024-03-23T11:58:19;6.05;;;2.08;;
22634;SDS011;11484;50.858;4.384;2024-03-23T12:00:49;4.55;;;1.52;;
22634;SDS011;11484;50.858;4.384;2024-03-23T12:03:16;8.02;;;2.35;;
22634;SDS011;11484;50.858;4.384;2024-03-23T12:05:47;5.68;;;1.75;;
22634;SDS011;11484;50.858;4.384;2024-03-23T12:08:24;4.57;;;1.48;;
22634;SDS011;11484;50.858;4.384;2024-03-23T12:11:10;5.05;;;1.42;;
22634;SDS011;11484;50.858;4.384;2024-03-23T12:13:38;6.57;;;1.60;;
22634;SDS011;11484;50.858;4.384;2024-03-23T12:18:36;4.50;;;1.40;;
22634;SDS011;11484;50.858;4.384;2024-03-23T12:21:03;8.18;;;1.73;;
22634;SDS011;11484;50.858;4.384;2024-03-23T12:23:29;8.75;;;2.60;;
22634;SDS011;11484;50.858;4.384;2024-03-23T12:25:54;2.60;;;1.00;;
22634;SDS011;11484;50.858;4.384;2024-03-23T12:28:20;2.40;;;1.20;;
22634;SDS011;11484;50.858;4.384;2024-03-23T12:30:46;6.03;;;1.52;;
22634;SDS011;11484;50.858;4.384;2024-03-23T12:33:11;5.85;;;1.20;;
22634;SDS011;11484;50.858;4.384;2024-03-23T12:35:37;5.90;;;1.35;;
22634;SDS011;11484;50.858;4.384;2024-03-23T12:38:03;5.80;;;1.50;;
22634;SDS011;11484;50.858;4.384;2024-03-23T12:40:29;9.88;;;1.85;;
22634;SDS011;11484;50.858;4.384;2024-03-23T12:42:54;5.32;;;1.77;;
22634;SDS011;11484;50.858;4.384;2024-03-23T12:45:23;16.10;;;2.22;;
22634;SDS011;11484;50.858;4.384;2024-03-23T12:47:49;4.38;;;1.67;;
22634;SDS011;11484;50.858;4.384;2024-03-23T12:50:15;15.38;;;1.85;;
22634;SDS011;11484;50.858;4.384;2024-03-23T12:52:40;4.57;;;1.50;;
22634;SDS011;11484;50.858;4.384;2024-03-23T12:55:07;7.22;;;1.85;;
22634;SDS011;11484;50.858;4.384;2024-03-23T12:57:33;7.78;;;1.92;;
22634;SDS011;11484;50.858;4.384;2024-03-23T12:59:58;3.80;;;1.40;;
22634;SDS011;11484;50.858;4.384;2024-03-23T13:02:25;6.93;;;2.10;;
22634;SDS011;11484;50.858;4.384;2024-03-23T13:04:51;4.90;;;1.15;;
22634;SDS011;11484;50.858;4.384;2024-03-23T13:07:18;6.03;;;1.50;;
22634;SDS011;11484;50.858;4.384;2024-03-23T13:09:45;4.35;;;1.10;;
22634;SDS011;11484;50.858;4.384;2024-03-23T13:12:12;4.93;;;1.38;;
22634;SDS011;11484;50.858;4.384;2024-03-23T13:14:41;3.90;;;1.35;;
22634;SDS011;11484;50.858;4.384;2024-03-23T13:17:07;3.72;;;1.20;;
22634;SDS011;11484;50.858;4.384;2024-03-23T13:19:33;3.97;;;2.05;;
22634;SDS011;11484;50.858;4.384;2024-03-23T13:22:02;5.88;;;1.67;;
22634;SDS011;11484;50.858;4.384;2024-03-23T13:24:28;3.85;;;1.08;;
22634;SDS011;11484;50.858;4.384;2024-03-23T13:26:55;4.93;;;1.50;;
22634;SDS011;11484;50.858;4.384;2024-03-23T13:29:22;4.75;;;1.10;;
22634;SDS011;11484;50.858;4.384;2024-03-23T13:31:48;6.18;;;1.90;;
22634;SDS011;11484;50.858;4.384;2024-03-23T13:34:15;6.45;;;1.30;;
22634;SDS011;11484;50.858;4.384;2024-03-23T13:36:41;6.20;;;1.40;;
22634;SDS011;11484;50.858;4.384;2024-03-23T13:39:08;4.22;;;1.30;;
22634;SDS011;11484;50.858;4.384;2024-03-23T13:41:46;5.60;;;1.10;;
22634;SDS011;11484;50.858;4.384;2024-03-23T13:44:12;6.15;;;1.15;;
22634;SDS011;11484;50.858;4.384;2024-03-23T13:46:41;4.85;;;1.52;;
22634;SDS011;11484;50.858;4.384;2024-03-23T13:49:24;7.65;;;1.38;;
22634;SDS011;11484;50.858;4.384;2024-03-23T13:51:52;4.80;;;1.70;;
22634;SDS011;11484;50.858;4.384;2024-03-23T13:54:18;7.45;;;1.95;;
22634;SDS011;11484;50.858;4.384;2024-03-23T13:56:44;8.38;;;2.47;;
22634;SDS011;11484;50.858;4.384;2024-03-23T13:59:10;8.27;;;1.75;;
22634;SDS011;11484;50.858;4.384;2024-03-23T14:01:37;5.40;;;1.77;;
22634;SDS011;11484;50.858;4.384;2024-03-23T14:04:03;5.28;;;1.33;;
22634;SDS011;11484;50.858;4.384;2024-03-23T14:06:28;6.50;;;1.77;;
22634;SDS011;11484;50.858;4.384;2024-03-23T14:08:54;4.95;;;1.13;;
22634;SDS011;11484;50.858;4.384;2024-03-23T14:11:20;4.80;;;1.25;;
22634;SDS011;11484;50.858;4.384;2024-03-23T14:13:51;5.82;;;1.95;;
22634;SDS011;11484;50.858;4.384;2024-03-23T14:16:18;5.05;;;1.83;;
22634;SDS011;11484;50.858;4.384;2024-03-23T14:18:46;7.53;;;2.20;;
22634;SDS011;11484;50.858;4.384;2024-03-23T14:21:12;5.55;;;1.80;;
22634;SDS011;11484;50.858;4.384;2024-03-23T14:23:39;4.30;;;1.92;;
22634;SDS011;11484;50.858;4.384;2024-03-23T14:26:08;5.43;;;1.42;;
22634;SDS011;11484;50.858;4.384;2024-03-23T14:28:33;7.13;;;2.25;;
22634;SDS011;11484;50.858;4.384;2024-03-23T14:31:00;6.45;;;2.00;;
22634;SDS011;11484;50.858;4.384;2024-03-23T14:33:26;7.88;;;1.80;;
22634;SDS011;11484;50.858;4.384;2024-03-23T14:35:53;5.78;;;1.98;;
22634;SDS011;11484;50.858;4.384;2024-03-23T14:38:20;6.82;;;1.70;;
22634;SDS011;11484;50.858;4.384;2024-03-23T14:40:46;7.75;;;1.80;;
22634;SDS011;11484;50.858;4.384;2024-03-23T14:43:14;2.92;;;1.30;;
22634;SDS011;11484;50.858;4.384;2024-03-23T14:48:34;5.38;;;1.20;;
22634;SDS011;11484;50.858;4.384;2024-03-23T14:51:00;5.82;;;1.77;;
22634;SDS011;11484;50.858;4.384;2024-03-23T14:53:26;5.43;;;1.92;;
22634;SDS011;11484;50.858;4.384;2024-03-23T14:55:55;6.45;;;1.95;;
22634;SDS011;11484;50.858;4.384;2024-03-23T14:58:21;7.70;;;2.47;;
22634;SDS011;11484;50.858;4.384;2024-03-23T15:00:48;8.52;;;2.22;;
22634;SDS011;11484;50.858;4.384;2024-03-23T15:03:14;8.75;;;1.90;;
22634;SDS011;11484;50.858;4.384;2024-03-23T15:05:40;5.20;;;1.65;;
22634;SDS011;11484;50.858;4.384;2024-03-23T15:08:06;8.57;;;2.13;;
22634;SDS011;11484;50.858;4.384;2024-03-23T15:10:32;7.70;;;1.80;;
22634;SDS011;11484;50.858;4.384;2024-03-23T15:12:58;11.13;;;2.35;;
22634;SDS011;11484;50.858;4.384;2024-03-23T15:15:24;6.70;;;2.78;;
22634;SDS011;11484;50.858;4.384;2024-03-23T15:17:50;4.38;;;1.80;;
22634;SDS011;11484;50.858;4.384;2024-03-23T15:20:16;7.60;;;1.95;;
22634;SDS011;11484;50.858;4.384;2024-03-23T15:22:42;8.65;;;1.88;;
22634;SDS011;11484;50.858;4.384;2024-03-23T15:25:07;7.18;;;1.65;;
22634;SDS011;11484;50.858;4.384;2024-03-23T15:27:33;7.50;;;3.53;;
22634;SDS011;11484;50.858;4.384;2024-03-23T15:29:59;5.28;;;1.80;;
22634;SDS011;11484;50.858;4.384;2024-03-23T15:32:25;6.78;;;2.05;;
22634;SDS011;11484;50.858;4.384;2024-03-23T15:34:50;7.15;;;2.00;;
22634;SDS011;11484;50.858;4.384;2024-03-23T15:37:17;5.78;;;2.35;;
22634;SDS011;11484;50.858;4.384;2024-03-23T15:39:44;7.45;;;2.05;;
22634;SDS011;11484;50.858;4.384;2024-03-23T15:42:10;7.80;;;2.20;;
22634;SDS011;11484;50.858;4.384;2024-03-23T15:44:36;7.07;;;2.45;;